< < Back
Terminal Aerodrome Forecast


Current Version              Previous Versions:   1  2  3  4  5  6  7  8  9  

Terminal Aerodrome Forecast

666
FTUS44 KBMX 031120
TAFANB
TAF
KANB 031120Z 0312/0412 30005KT P6SM BKN030
      TEMPO 0312/0315 SCT015 BKN020
     FM031800 31010KT P6SM SCT080
     FM040000 33006KT P6SM FEW200=

Latest METAR

444
SAUS70 KWBC 040100 RRD
MTRANB
METAR KANB 040053Z AUTO 30006KT 10SM FEW050 BKN070 21/11 A2988 RMK AO2
SLP112 T02060111


USA.gov is the U.S. government's official web portal to all federal, state and local government web resources and services.